sensor_id;sensor_type;location;lat;lon;timestamp;P1;durP1;ratioP1;P2;durP2;ratioP2
1479;SDS011;732;51.698;4.886;2023-04-15T00:01:14;13.10;;;9.87;;
1479;SDS011;732;51.698;4.886;2023-04-15T00:03:45;17.17;;;9.23;;
1479;SDS011;732;51.698;4.886;2023-04-15T00:06:14;16.23;;;9.10;;
1479;SDS011;732;51.698;4.886;2023-04-15T00:08:42;13.00;;;9.80;;
1479;SDS011;732;51.698;4.886;2023-04-15T00:11:11;17.60;;;11.00;;
1479;SDS011;732;51.698;4.886;2023-04-15T00:13:40;19.20;;;9.87;;
1479;SDS011;732;51.698;4.886;2023-04-15T00:16:09;15.77;;;10.13;;
1479;SDS011;732;51.698;4.886;2023-04-15T00:18:38;16.27;;;10.57;;
1479;SDS011;732;51.698;4.886;2023-04-15T00:21:06;14.80;;;10.33;;
1479;SDS011;732;51.698;4.886;2023-04-15T00:23:34;16.80;;;11.30;;
1479;SDS011;732;51.698;4.886;2023-04-15T00:26:03;15.73;;;11.00;;
1479;SDS011;732;51.698;4.886;2023-04-15T00:28:32;18.40;;;11.13;;
1479;SDS011;732;51.698;4.886;2023-04-15T00:31:01;16.53;;;11.10;;
1479;SDS011;732;51.698;4.886;2023-04-15T00:33:30;17.40;;;11.40;;
1479;SDS011;732;51.698;4.886;2023-04-15T00:35:58;15.17;;;11.20;;
1479;SDS011;732;51.698;4.886;2023-04-15T00:38:26;13.00;;;10.30;;
1479;SDS011;732;51.698;4.886;2023-04-15T00:40:55;17.63;;;12.03;;
1479;SDS011;732;51.698;4.886;2023-04-15T00:43:23;16.30;;;12.33;;
1479;SDS011;732;51.698;4.886;2023-04-15T00:45:53;22.47;;;11.30;;
1479;SDS011;732;51.698;4.886;2023-04-15T00:48:23;16.10;;;11.80;;
1479;SDS011;732;51.698;4.886;2023-04-15T00:50:52;22.20;;;13.00;;
1479;SDS011;732;51.698;4.886;2023-04-15T00:53:21;16.90;;;11.90;;
1479;SDS011;732;51.698;4.886;2023-04-15T00:55:49;20.97;;;12.33;;
1479;SDS011;732;51.698;4.886;2023-04-15T00:58:19;21.13;;;11.57;;
1479;SDS011;732;51.698;4.886;2023-04-15T01:00:47;16.23;;;10.97;;
1479;SDS011;732;51.698;4.886;2023-04-15T01:03:21;17.87;;;11.07;;
1479;SDS011;732;51.698;4.886;2023-04-15T01:05:49;12.73;;;10.53;;
1479;SDS011;732;51.698;4.886;2023-04-15T01:08:25;17.73;;;11.47;;
1479;SDS011;732;51.698;4.886;2023-04-15T01:10:55;16.70;;;11.97;;
1479;SDS011;732;51.698;4.886;2023-04-15T01:13:24;18.17;;;11.70;;
1479;SDS011;732;51.698;4.886;2023-04-15T01:15:53;17.10;;;10.63;;
1479;SDS011;732;51.698;4.886;2023-04-15T01:18:25;22.83;;;12.13;;
1479;SDS011;732;51.698;4.886;2023-04-15T01:20:53;17.90;;;12.30;;
1479;SDS011;732;51.698;4.886;2023-04-15T01:23:22;20.37;;;12.40;;
1479;SDS011;732;51.698;4.886;2023-04-15T01:25:53;18.53;;;12.47;;
1479;SDS011;732;51.698;4.886;2023-04-15T01:28:22;16.53;;;11.67;;
1479;SDS011;732;51.698;4.886;2023-04-15T01:31:03;15.70;;;12.07;;
1479;SDS011;732;51.698;4.886;2023-04-15T01:33:36;17.80;;;10.77;;
1479;SDS011;732;51.698;4.886;2023-04-15T01:36:05;17.10;;;10.67;;
1479;SDS011;732;51.698;4.886;2023-04-15T01:38:35;17.50;;;11.63;;
1479;SDS011;732;51.698;4.886;2023-04-15T01:41:05;17.70;;;11.40;;
1479;SDS011;732;51.698;4.886;2023-04-15T01:43:34;18.70;;;11.40;;
1479;SDS011;732;51.698;4.886;2023-04-15T01:46:03;19.80;;;12.57;;
1479;SDS011;732;51.698;4.886;2023-04-15T01:48:31;20.27;;;11.60;;
1479;SDS011;732;51.698;4.886;2023-04-15T01:51:02;19.63;;;13.70;;
1479;SDS011;732;51.698;4.886;2023-04-15T01:53:31;17.93;;;12.60;;
1479;SDS011;732;51.698;4.886;2023-04-15T01:56:00;17.30;;;13.03;;
1479;SDS011;732;51.698;4.886;2023-04-15T01:58:30;16.50;;;12.47;;
1479;SDS011;732;51.698;4.886;2023-04-15T02:00:58;17.67;;;12.70;;
1479;SDS011;732;51.698;4.886;2023-04-15T02:03:30;23.57;;;15.20;;
1479;SDS011;732;51.698;4.886;2023-04-15T02:05:59;16.43;;;12.53;;
1479;SDS011;732;51.698;4.886;2023-04-15T02:08:27;21.43;;;13.77;;
1479;SDS011;732;51.698;4.886;2023-04-15T02:10:55;27.60;;;13.10;;
1479;SDS011;732;51.698;4.886;2023-04-15T02:13:23;19.47;;;12.20;;
1479;SDS011;732;51.698;4.886;2023-04-15T02:15:56;17.53;;;12.30;;
1479;SDS011;732;51.698;4.886;2023-04-15T02:18:24;20.20;;;12.77;;
1479;SDS011;732;51.698;4.886;2023-04-15T02:20:52;16.37;;;12.60;;
1479;SDS011;732;51.698;4.886;2023-04-15T02:23:21;22.27;;;14.43;;
1479;SDS011;732;51.698;4.886;2023-04-15T02:25:50;17.80;;;13.63;;
1479;SDS011;732;51.698;4.886;2023-04-15T02:28:19;20.27;;;14.10;;
1479;SDS011;732;51.698;4.886;2023-04-15T02:30:50;19.90;;;13.60;;
1479;SDS011;732;51.698;4.886;2023-04-15T02:33:21;17.90;;;13.30;;
1479;SDS011;732;51.698;4.886;2023-04-15T02:35:50;22.73;;;13.03;;
1479;SDS011;732;51.698;4.886;2023-04-15T02:38:18;20.27;;;14.03;;
1479;SDS011;732;51.698;4.886;2023-04-15T02:40:47;18.73;;;14.00;;
1479;SDS011;732;51.698;4.886;2023-04-15T02:43:15;18.07;;;13.60;;
1479;SDS011;732;51.698;4.886;2023-04-15T02:45:44;21.50;;;13.30;;
1479;SDS011;732;51.698;4.886;2023-04-15T02:48:13;23.83;;;14.43;;
1479;SDS011;732;51.698;4.886;2023-04-15T02:50:45;16.57;;;13.23;;
1479;SDS011;732;51.698;4.886;2023-04-15T02:53:15;17.83;;;13.77;;
1479;SDS011;732;51.698;4.886;2023-04-15T02:55:43;19.60;;;12.57;;
1479;SDS011;732;51.698;4.886;2023-04-15T02:58:12;20.50;;;14.00;;
1479;SDS011;732;51.698;4.886;2023-04-15T03:00:40;16.93;;;13.20;;
1479;SDS011;732;51.698;4.886;2023-04-15T03:03:08;17.80;;;14.33;;
1479;SDS011;732;51.698;4.886;2023-04-15T03:05:36;16.73;;;14.37;;
1479;SDS011;732;51.698;4.886;2023-04-15T03:08:07;18.83;;;13.80;;
1479;SDS011;732;51.698;4.886;2023-04-15T03:10:36;21.17;;;14.90;;
1479;SDS011;732;51.698;4.886;2023-04-15T03:13:04;24.43;;;15.90;;
1479;SDS011;732;51.698;4.886;2023-04-15T03:15:32;17.60;;;13.87;;
1479;SDS011;732;51.698;4.886;2023-04-15T03:18:00;27.73;;;16.40;;
1479;SDS011;732;51.698;4.886;2023-04-15T03:20:28;21.13;;;14.90;;
1479;SDS011;732;51.698;4.886;2023-04-15T03:22:57;20.73;;;15.90;;
1479;SDS011;732;51.698;4.886;2023-04-15T03:25:28;22.53;;;16.17;;
1479;SDS011;732;51.698;4.886;2023-04-15T03:27:58;21.43;;;14.40;;
1479;SDS011;732;51.698;4.886;2023-04-15T03:30:27;21.47;;;15.80;;
1479;SDS011;732;51.698;4.886;2023-04-15T03:32:55;18.30;;;14.60;;
1479;SDS011;732;51.698;4.886;2023-04-15T03:35:24;22.70;;;15.80;;
1479;SDS011;732;51.698;4.886;2023-04-15T03:37:52;19.30;;;15.43;;
1479;SDS011;732;51.698;4.886;2023-04-15T03:40:20;17.37;;;14.80;;
1479;SDS011;732;51.698;4.886;2023-04-15T03:42:50;21.83;;;14.37;;
1479;SDS011;732;51.698;4.886;2023-04-15T03:45:18;20.57;;;15.00;;
1479;SDS011;732;51.698;4.886;2023-04-15T03:47:46;17.23;;;15.27;;
1479;SDS011;732;51.698;4.886;2023-04-15T03:50:15;17.17;;;13.37;;
1479;SDS011;732;51.698;4.886;2023-04-15T03:52:43;19.43;;;14.50;;
1479;SDS011;732;51.698;4.886;2023-04-15T03:55:11;21.97;;;14.37;;
1479;SDS011;732;51.698;4.886;2023-04-15T03:57:41;23.53;;;14.00;;
1479;SDS011;732;51.698;4.886;2023-04-15T04:00:10;18.50;;;14.20;;
1479;SDS011;732;51.698;4.886;2023-04-15T04:02:39;17.07;;;13.60;;
1479;SDS011;732;51.698;4.886;2023-04-15T04:05:07;19.20;;;14.27;;
1479;SDS011;732;51.698;4.886;2023-04-15T04:07:37;20.83;;;14.50;;
1479;SDS011;732;51.698;4.886;2023-04-15T04:10:06;17.30;;;14.03;;
1479;SDS011;732;51.698;4.886;2023-04-15T04:12:35;20.10;;;14.50;;
1479;SDS011;732;51.698;4.886;2023-04-15T04:15:03;20.50;;;15.37;;
1479;SDS011;732;51.698;4.886;2023-04-15T04:17:37;19.43;;;13.20;;
1479;SDS011;732;51.698;4.886;2023-04-15T04:20:05;18.87;;;13.50;;
1479;SDS011;732;51.698;4.886;2023-04-15T04:22:36;19.37;;;13.43;;
1479;SDS011;732;51.698;4.886;2023-04-15T04:25:05;21.60;;;14.23;;
1479;SDS011;732;51.698;4.886;2023-04-15T04:27:35;19.20;;;14.13;;
1479;SDS011;732;51.698;4.886;2023-04-15T04:30:03;19.60;;;14.03;;
1479;SDS011;732;51.698;4.886;2023-04-15T04:32:33;23.63;;;14.50;;
1479;SDS011;732;51.698;4.886;2023-04-15T04:35:03;18.77;;;12.50;;
1479;SDS011;732;51.698;4.886;2023-04-15T04:37:32;18.60;;;13.13;;
1479;SDS011;732;51.698;4.886;2023-04-15T04:40:00;19.53;;;14.33;;
1479;SDS011;732;51.698;4.886;2023-04-15T04:42:28;19.73;;;13.40;;
1479;SDS011;732;51.698;4.886;2023-04-15T04:44:57;15.87;;;12.30;;
1479;SDS011;732;51.698;4.886;2023-04-15T04:47:25;18.80;;;13.97;;
1479;SDS011;732;51.698;4.886;2023-04-15T04:49:53;17.80;;;13.50;;
1479;SDS011;732;51.698;4.886;2023-04-15T04:52:24;19.37;;;13.47;;
1479;SDS011;732;51.698;4.886;2023-04-15T04:54:53;18.50;;;13.50;;
1479;SDS011;732;51.698;4.886;2023-04-15T04:57:21;18.80;;;13.90;;
1479;SDS011;732;51.698;4.886;2023-04-15T04:59:49;18.87;;;13.40;;
1479;SDS011;732;51.698;4.886;2023-04-15T05:02:17;20.67;;;13.57;;
1479;SDS011;732;51.698;4.886;2023-04-15T05:04:46;19.40;;;13.63;;
1479;SDS011;732;51.698;4.886;2023-04-15T05:07:15;20.30;;;14.57;;
1479;SDS011;732;51.698;4.886;2023-04-15T05:09:45;28.03;;;14.90;;
1479;SDS011;732;51.698;4.886;2023-04-15T05:12:13;23.80;;;14.77;;
1479;SDS011;732;51.698;4.886;2023-04-15T05:14:41;22.87;;;15.23;;
1479;SDS011;732;51.698;4.886;2023-04-15T05:17:09;21.87;;;14.20;;
1479;SDS011;732;51.698;4.886;2023-04-15T05:19:37;19.43;;;12.60;;
1479;SDS011;732;51.698;4.886;2023-04-15T05:22:06;19.87;;;13.47;;
1479;SDS011;732;51.698;4.886;2023-04-15T05:24:34;20.80;;;14.77;;
1479;SDS011;732;51.698;4.886;2023-04-15T05:27:04;22.13;;;13.63;;
1479;SDS011;732;51.698;4.886;2023-04-15T05:29:33;22.63;;;15.67;;
1479;SDS011;732;51.698;4.886;2023-04-15T05:32:02;25.87;;;15.87;;
1479;SDS011;732;51.698;4.886;2023-04-15T05:34:30;20.33;;;13.73;;
1479;SDS011;732;51.698;4.886;2023-04-15T05:36:58;19.67;;;14.80;;
1479;SDS011;732;51.698;4.886;2023-04-15T05:39:29;17.40;;;13.40;;
1479;SDS011;732;51.698;4.886;2023-04-15T05:41:58;15.80;;;12.47;;
1479;SDS011;732;51.698;4.886;2023-04-15T05:44:27;19.00;;;12.80;;
1479;SDS011;732;51.698;4.886;2023-04-15T05:46:56;17.37;;;13.13;;
1479;SDS011;732;51.698;4.886;2023-04-15T05:49:24;17.67;;;11.90;;
1479;SDS011;732;51.698;4.886;2023-04-15T05:51:52;19.80;;;12.27;;
1479;SDS011;732;51.698;4.886;2023-04-15T05:54:21;14.30;;;11.40;;
1479;SDS011;732;51.698;4.886;2023-04-15T05:56:49;18.50;;;12.73;;
1479;SDS011;732;51.698;4.886;2023-04-15T05:59:17;18.53;;;13.40;;
1479;SDS011;732;51.698;4.886;2023-04-15T06:01:47;18.00;;;13.30;;
1479;SDS011;732;51.698;4.886;2023-04-15T06:04:18;15.87;;;12.60;;
1479;SDS011;732;51.698;4.886;2023-04-15T06:06:47;15.60;;;11.70;;
1479;SDS011;732;51.698;4.886;2023-04-15T06:09:15;14.67;;;11.30;;
1479;SDS011;732;51.698;4.886;2023-04-15T06:11:43;17.43;;;12.17;;
1479;SDS011;732;51.698;4.886;2023-04-15T06:14:11;15.60;;;10.63;;
1479;SDS011;732;51.698;4.886;2023-04-15T06:16:39;18.33;;;12.63;;
1479;SDS011;732;51.698;4.886;2023-04-15T06:19:09;13.97;;;11.97;;
1479;SDS011;732;51.698;4.886;2023-04-15T06:21:37;17.77;;;11.80;;
1479;SDS011;732;51.698;4.886;2023-04-15T06:24:06;19.63;;;12.40;;
1479;SDS011;732;51.698;4.886;2023-04-15T06:26:34;16.70;;;12.73;;
1479;SDS011;732;51.698;4.886;2023-04-15T06:29:02;15.30;;;11.70;;
1479;SDS011;732;51.698;4.886;2023-04-15T06:31:31;17.27;;;11.30;;
1479;SDS011;732;51.698;4.886;2023-04-15T06:33:59;17.43;;;11.40;;
1479;SDS011;732;51.698;4.886;2023-04-15T06:36:29;18.70;;;12.43;;
1479;SDS011;732;51.698;4.886;2023-04-15T06:38:57;16.77;;;12.27;;
1479;SDS011;732;51.698;4.886;2023-04-15T06:41:27;14.50;;;11.40;;
1479;SDS011;732;51.698;4.886;2023-04-15T06:43:55;17.27;;;11.70;;
1479;SDS011;732;51.698;4.886;2023-04-15T06:46:23;16.47;;;12.23;;
1479;SDS011;732;51.698;4.886;2023-04-15T06:48:53;14.83;;;11.67;;
1479;SDS011;732;51.698;4.886;2023-04-15T06:51:23;16.50;;;11.90;;
1479;SDS011;732;51.698;4.886;2023-04-15T06:53:53;16.83;;;11.20;;
1479;SDS011;732;51.698;4.886;2023-04-15T06:56:22;19.90;;;12.47;;
1479;SDS011;732;51.698;4.886;2023-04-15T06:58:50;14.10;;;11.60;;
1479;SDS011;732;51.698;4.886;2023-04-15T07:01:19;15.40;;;11.97;;
1479;SDS011;732;51.698;4.886;2023-04-15T07:03:47;14.63;;;12.10;;
1479;SDS011;732;51.698;4.886;2023-04-15T07:06:16;15.47;;;11.20;;
1479;SDS011;732;51.698;4.886;2023-04-15T07:08:45;14.63;;;12.00;;
1479;SDS011;732;51.698;4.886;2023-04-15T07:11:14;15.17;;;11.33;;
1479;SDS011;732;51.698;4.886;2023-04-15T07:13:42;17.57;;;11.87;;
1479;SDS011;732;51.698;4.886;2023-04-15T07:16:11;15.57;;;11.40;;
1479;SDS011;732;51.698;4.886;2023-04-15T07:18:39;15.87;;;11.33;;
1479;SDS011;732;51.698;4.886;2023-04-15T07:21:07;16.10;;;11.57;;
1479;SDS011;732;51.698;4.886;2023-04-15T07:23:36;15.77;;;11.40;;
1479;SDS011;732;51.698;4.886;2023-04-15T07:26:04;22.87;;;13.07;;
1479;SDS011;732;51.698;4.886;2023-04-15T07:28:34;17.27;;;12.07;;
1479;SDS011;732;51.698;4.886;2023-04-15T07:31:02;14.47;;;12.13;;
1479;SDS011;732;51.698;4.886;2023-04-15T07:33:31;16.27;;;11.60;;
1479;SDS011;732;51.698;4.886;2023-04-15T07:35:59;14.37;;;10.70;;
1479;SDS011;732;51.698;4.886;2023-04-15T07:38:27;15.93;;;11.47;;
1479;SDS011;732;51.698;4.886;2023-04-15T07:40:56;15.73;;;11.13;;
1479;SDS011;732;51.698;4.886;2023-04-15T07:43:24;16.13;;;12.60;;
1479;SDS011;732;51.698;4.886;2023-04-15T07:45:54;14.00;;;9.83;;
1479;SDS011;732;51.698;4.886;2023-04-15T07:48:22;13.83;;;10.43;;
1479;SDS011;732;51.698;4.886;2023-04-15T07:50:50;16.57;;;11.00;;
1479;SDS011;732;51.698;4.886;2023-04-15T07:53:18;13.80;;;10.70;;
1479;SDS011;732;51.698;4.886;2023-04-15T07:55:47;12.47;;;9.37;;
1479;SDS011;732;51.698;4.886;2023-04-15T07:58:16;13.10;;;10.50;;
1479;SDS011;732;51.698;4.886;2023-04-15T08:00:44;12.27;;;10.13;;
1479;SDS011;732;51.698;4.886;2023-04-15T08:03:13;13.37;;;10.10;;
1479;SDS011;732;51.698;4.886;2023-04-15T08:05:42;15.50;;;10.93;;
1479;SDS011;732;51.698;4.886;2023-04-15T08:08:12;13.77;;;10.53;;
1479;SDS011;732;51.698;4.886;2023-04-15T08:10:40;12.20;;;10.10;;
1479;SDS011;732;51.698;4.886;2023-04-15T08:13:09;13.10;;;10.83;;
1479;SDS011;732;51.698;4.886;2023-04-15T08:15:37;13.40;;;10.20;;
1479;SDS011;732;51.698;4.886;2023-04-15T08:18:05;10.97;;;9.33;;
1479;SDS011;732;51.698;4.886;2023-04-15T08:20:35;9.30;;;8.23;;
1479;SDS011;732;51.698;4.886;2023-04-15T08:23:03;11.60;;;8.80;;
1479;SDS011;732;51.698;4.886;2023-04-15T08:25:31;9.33;;;7.83;;
1479;SDS011;732;51.698;4.886;2023-04-15T08:28:02;10.67;;;8.40;;
1479;SDS011;732;51.698;4.886;2023-04-15T08:30:32;13.13;;;9.07;;
1479;SDS011;732;51.698;4.886;2023-04-15T08:33:00;10.00;;;8.43;;
1479;SDS011;732;51.698;4.886;2023-04-15T08:35:29;11.90;;;8.80;;
1479;SDS011;732;51.698;4.886;2023-04-15T08:37:58;8.80;;;7.87;;
1479;SDS011;732;51.698;4.886;2023-04-15T08:40:26;10.40;;;7.73;;
1479;SDS011;732;51.698;4.886;2023-04-15T08:47:43;12.23;;;8.83;;
1479;SDS011;732;51.698;4.886;2023-04-15T08:50:15;16.30;;;9.33;;
1479;SDS011;732;51.698;4.886;2023-04-15T08:52:44;12.10;;;9.70;;
1479;SDS011;732;51.698;4.886;2023-04-15T08:55:14;11.50;;;9.97;;
1479;SDS011;732;51.698;4.886;2023-04-15T08:57:42;12.03;;;9.33;;
1479;SDS011;732;51.698;4.886;2023-04-15T09:00:11;11.03;;;9.03;;
1479;SDS011;732;51.698;4.886;2023-04-15T09:02:40;12.27;;;9.20;;
1479;SDS011;732;51.698;4.886;2023-04-15T09:05:10;12.17;;;9.57;;
1479;SDS011;732;51.698;4.886;2023-04-15T09:07:38;10.83;;;8.97;;
1479;SDS011;732;51.698;4.886;2023-04-15T09:10:07;13.97;;;9.17;;
1479;SDS011;732;51.698;4.886;2023-04-15T09:12:37;12.83;;;10.30;;
1479;SDS011;732;51.698;4.886;2023-04-15T09:15:06;11.93;;;9.10;;
1479;SDS011;732;51.698;4.886;2023-04-15T09:17:41;11.23;;;9.50;;
1479;SDS011;732;51.698;4.886;2023-04-15T09:20:10;12.63;;;9.10;;
1479;SDS011;732;51.698;4.886;2023-04-15T09:22:42;9.83;;;8.07;;
1479;SDS011;732;51.698;4.886;2023-04-15T09:25:24;13.03;;;8.13;;
1479;SDS011;732;51.698;4.886;2023-04-15T09:28:01;7.83;;;6.37;;
1479;SDS011;732;51.698;4.886;2023-04-15T09:30:29;8.80;;;6.73;;
1479;SDS011;732;51.698;4.886;2023-04-15T09:32:58;9.70;;;7.40;;
1479;SDS011;732;51.698;4.886;2023-04-15T09:35:28;9.67;;;7.20;;
1479;SDS011;732;51.698;4.886;2023-04-15T09:38:01;12.33;;;8.00;;
1479;SDS011;732;51.698;4.886;2023-04-15T09:40:32;10.30;;;7.70;;
1479;SDS011;732;51.698;4.886;2023-04-15T09:43:03;8.47;;;6.90;;
1479;SDS011;732;51.698;4.886;2023-04-15T09:45:33;6.70;;;5.07;;
1479;SDS011;732;51.698;4.886;2023-04-15T09:48:13;8.40;;;5.70;;
1479;SDS011;732;51.698;4.886;2023-04-15T09:50:46;6.53;;;4.90;;
1479;SDS011;732;51.698;4.886;2023-04-15T09:56:12;8.50;;;5.33;;
1479;SDS011;732;51.698;4.886;2023-04-15T09:58:42;8.83;;;5.80;;
1479;SDS011;732;51.698;4.886;2023-04-15T10:01:12;7.30;;;5.90;;
1479;SDS011;732;51.698;4.886;2023-04-15T10:03:40;7.03;;;4.67;;
1479;SDS011;732;51.698;4.886;2023-04-15T10:06:10;7.47;;;5.50;;
1479;SDS011;732;51.698;4.886;2023-04-15T10:08:38;6.57;;;4.70;;
1479;SDS011;732;51.698;4.886;2023-04-15T10:11:08;7.37;;;5.23;;
1479;SDS011;732;51.698;4.886;2023-04-15T10:13:37;9.77;;;5.40;;
1479;SDS011;732;51.698;4.886;2023-04-15T10:16:09;7.03;;;5.70;;
1479;SDS011;732;51.698;4.886;2023-04-15T10:18:42;7.33;;;5.00;;
1479;SDS011;732;51.698;4.886;2023-04-15T10:21:12;6.80;;;4.50;;
1479;SDS011;732;51.698;4.886;2023-04-15T10:23:44;5.27;;;4.43;;
1479;SDS011;732;51.698;4.886;2023-04-15T10:26:12;5.63;;;4.27;;
1479;SDS011;732;51.698;4.886;2023-04-15T10:28:42;5.80;;;4.60;;
1479;SDS011;732;51.698;4.886;2023-04-15T10:31:13;6.60;;;4.60;;
1479;SDS011;732;51.698;4.886;2023-04-15T10:33:43;4.73;;;3.60;;
1479;SDS011;732;51.698;4.886;2023-04-15T10:36:13;4.67;;;3.53;;
1479;SDS011;732;51.698;4.886;2023-04-15T10:38:43;4.13;;;3.07;;
1479;SDS011;732;51.698;4.886;2023-04-15T10:41:13;3.60;;;3.30;;
1479;SDS011;732;51.698;4.886;2023-04-15T10:43:50;4.70;;;3.67;;
1479;SDS011;732;51.698;4.886;2023-04-15T10:46:22;3.47;;;3.17;;
1479;SDS011;732;51.698;4.886;2023-04-15T10:49:05;4.67;;;3.67;;
1479;SDS011;732;51.698;4.886;2023-04-15T10:51:36;4.73;;;3.33;;
1479;SDS011;732;51.698;4.886;2023-04-15T10:54:08;6.90;;;3.53;;
1479;SDS011;732;51.698;4.886;2023-04-15T10:56:41;5.57;;;4.00;;
1479;SDS011;732;51.698;4.886;2023-04-15T10:59:10;6.20;;;4.10;;
1479;SDS011;732;51.698;4.886;2023-04-15T11:01:53;8.40;;;4.20;;
1479;SDS011;732;51.698;4.886;2023-04-15T11:13:28;4.37;;;2.53;;
1479;SDS011;732;51.698;4.886;2023-04-15T11:15:59;4.23;;;2.57;;
1479;SDS011;732;51.698;4.886;2023-04-15T11:18:31;3.63;;;2.10;;
1479;SDS011;732;51.698;4.886;2023-04-15T11:21:02;5.10;;;2.20;;
1479;SDS011;732;51.698;4.886;2023-04-15T11:23:33;2.90;;;2.33;;
1479;SDS011;732;51.698;4.886;2023-04-15T11:26:05;3.93;;;2.53;;
1479;SDS011;732;51.698;4.886;2023-04-15T11:28:38;4.80;;;4.00;;
1479;SDS011;732;51.698;4.886;2023-04-15T11:31:09;5.37;;;3.40;;
1479;SDS011;732;51.698;4.886;2023-04-15T11:33:52;5.53;;;4.00;;
1479;SDS011;732;51.698;4.886;2023-04-15T11:36:25;4.40;;;3.63;;
1479;SDS011;732;51.698;4.886;2023-04-15T11:38:57;6.70;;;4.20;;
1479;SDS011;732;51.698;4.886;2023-04-15T11:41:29;3.93;;;3.60;;
1479;SDS011;732;51.698;4.886;2023-04-15T11:43:58;7.40;;;3.10;;
1479;SDS011;732;51.698;4.886;2023-04-15T11:46:28;5.20;;;3.67;;
1479;SDS011;732;51.698;4.886;2023-04-15T11:48:59;2.57;;;2.37;;
1479;SDS011;732;51.698;4.886;2023-04-15T11:51:31;3.10;;;2.73;;
1479;SDS011;732;51.698;4.886;2023-04-15T11:54:00;5.63;;;2.80;;
1479;SDS011;732;51.698;4.886;2023-04-15T11:56:29;3.20;;;2.73;;
1479;SDS011;732;51.698;4.886;2023-04-15T11:58:58;3.23;;;2.93;;
1479;SDS011;732;51.698;4.886;2023-04-15T12:01:30;5.60;;;3.30;;
1479;SDS011;732;51.698;4.886;2023-04-15T12:04:00;4.00;;;2.60;;
1479;SDS011;732;51.698;4.886;2023-04-15T12:06:31;3.97;;;2.90;;
1479;SDS011;732;51.698;4.886;2023-04-15T12:09:03;7.47;;;3.50;;
1479;SDS011;732;51.698;4.886;2023-04-15T12:11:37;5.20;;;3.43;;
1479;SDS011;732;51.698;4.886;2023-04-15T12:14:12;9.53;;;3.50;;
1479;SDS011;732;51.698;4.886;2023-04-15T12:16:49;5.60;;;3.80;;
1479;SDS011;732;51.698;4.886;2023-04-15T12:19:25;5.73;;;4.27;;
1479;SDS011;732;51.698;4.886;2023-04-15T12:21:56;5.63;;;4.37;;
1479;SDS011;732;51.698;4.886;2023-04-15T12:24:27;5.97;;;4.37;;
1479;SDS011;732;51.698;4.886;2023-04-15T12:27:00;4.70;;;3.63;;
1479;SDS011;732;51.698;4.886;2023-04-15T12:29:30;4.90;;;4.10;;
1479;SDS011;732;51.698;4.886;2023-04-15T12:32:03;5.73;;;3.60;;
1479;SDS011;732;51.698;4.886;2023-04-15T12:34:36;5.73;;;4.10;;
1479;SDS011;732;51.698;4.886;2023-04-15T12:37:06;7.20;;;4.40;;
1479;SDS011;732;51.698;4.886;2023-04-15T12:39:37;7.93;;;4.00;;
1479;SDS011;732;51.698;4.886;2023-04-15T12:42:07;8.77;;;4.17;;
1479;SDS011;732;51.698;4.886;2023-04-15T12:44:38;3.47;;;3.17;;
1479;SDS011;732;51.698;4.886;2023-04-15T12:47:07;4.27;;;3.00;;
1479;SDS011;732;51.698;4.886;2023-04-15T12:49:38;6.40;;;3.10;;
1479;SDS011;732;51.698;4.886;2023-04-15T12:52:06;4.40;;;3.20;;
1479;SDS011;732;51.698;4.886;2023-04-15T12:54:35;2.50;;;2.23;;
1479;SDS011;732;51.698;4.886;2023-04-15T12:57:03;6.03;;;2.70;;
1479;SDS011;732;51.698;4.886;2023-04-15T12:59:34;3.87;;;3.23;;
1479;SDS011;732;51.698;4.886;2023-04-15T13:02:04;3.13;;;2.50;;
1479;SDS011;732;51.698;4.886;2023-04-15T13:04:32;3.20;;;2.37;;
1479;SDS011;732;51.698;4.886;2023-04-15T13:07:02;3.00;;;2.40;;
1479;SDS011;732;51.698;4.886;2023-04-15T13:09:30;3.80;;;2.33;;
1479;SDS011;732;51.698;4.886;2023-04-15T13:11:59;4.70;;;3.13;;
1479;SDS011;732;51.698;4.886;2023-04-15T13:14:30;4.60;;;3.07;;
1479;SDS011;732;51.698;4.886;2023-04-15T13:16:58;4.77;;;2.60;;
1479;SDS011;732;51.698;4.886;2023-04-15T13:19:26;5.30;;;3.27;;
1479;SDS011;732;51.698;4.886;2023-04-15T13:21:55;5.70;;;3.13;;
1479;SDS011;732;51.698;4.886;2023-04-15T13:24:24;5.00;;;3.30;;
1479;SDS011;732;51.698;4.886;2023-04-15T13:26:53;4.70;;;3.43;;
1479;SDS011;732;51.698;4.886;2023-04-15T13:29:24;20.50;;;4.40;;
1479;SDS011;732;51.698;4.886;2023-04-15T13:31:55;7.50;;;2.73;;
1479;SDS011;732;51.698;4.886;2023-04-15T13:34:24;3.83;;;2.90;;
1479;SDS011;732;51.698;4.886;2023-04-15T13:36:52;4.77;;;3.10;;
1479;SDS011;732;51.698;4.886;2023-04-15T13:39:20;5.90;;;2.93;;
1479;SDS011;732;51.698;4.886;2023-04-15T13:41:50;3.60;;;2.87;;
1479;SDS011;732;51.698;4.886;2023-04-15T13:44:18;4.53;;;2.77;;
1479;SDS011;732;51.698;4.886;2023-04-15T13:46:47;2.77;;;2.40;;
1479;SDS011;732;51.698;4.886;2023-04-15T13:49:15;2.90;;;2.33;;
1479;SDS011;732;51.698;4.886;2023-04-15T13:51:44;8.23;;;4.10;;
1479;SDS011;732;51.698;4.886;2023-04-15T13:54:12;5.63;;;2.80;;
1479;SDS011;732;51.698;4.886;2023-04-15T13:56:40;3.60;;;2.80;;
1479;SDS011;732;51.698;4.886;2023-04-15T13:59:10;3.67;;;2.50;;
1479;SDS011;732;51.698;4.886;2023-04-15T14:01:39;3.17;;;2.43;;
1479;SDS011;732;51.698;4.886;2023-04-15T14:04:09;6.53;;;2.30;;
1479;SDS011;732;51.698;4.886;2023-04-15T14:06:37;3.47;;;1.90;;
1479;SDS011;732;51.698;4.886;2023-04-15T14:09:05;3.30;;;2.17;;
1479;SDS011;732;51.698;4.886;2023-04-15T14:11:34;3.40;;;1.83;;
1479;SDS011;732;51.698;4.886;2023-04-15T14:14:05;7.10;;;1.87;;
1479;SDS011;732;51.698;4.886;2023-04-15T14:16:35;5.77;;;1.77;;
1479;SDS011;732;51.698;4.886;2023-04-15T14:19:03;2.70;;;1.50;;
1479;SDS011;732;51.698;4.886;2023-04-15T14:21:32;4.43;;;2.60;;
1479;SDS011;732;51.698;4.886;2023-04-15T14:24:00;3.73;;;2.50;;
1479;SDS011;732;51.698;4.886;2023-04-15T14:26:29;4.73;;;3.67;;
1479;SDS011;732;51.698;4.886;2023-04-15T14:28:57;5.00;;;2.87;;
1479;SDS011;732;51.698;4.886;2023-04-15T14:31:25;3.10;;;2.60;;
1479;SDS011;732;51.698;4.886;2023-04-15T14:33:55;4.90;;;4.10;;
1479;SDS011;732;51.698;4.886;2023-04-15T14:36:23;6.00;;;3.53;;
1479;SDS011;732;51.698;4.886;2023-04-15T14:38:52;6.90;;;4.67;;
1479;SDS011;732;51.698;4.886;2023-04-15T14:41:21;3.77;;;3.03;;
1479;SDS011;732;51.698;4.886;2023-04-15T14:43:49;6.67;;;2.77;;
1479;SDS011;732;51.698;4.886;2023-04-15T14:46:17;3.73;;;2.37;;
1479;SDS011;732;51.698;4.886;2023-04-15T14:48:45;5.00;;;3.03;;
1479;SDS011;732;51.698;4.886;2023-04-15T14:51:15;6.17;;;3.00;;
1479;SDS011;732;51.698;4.886;2023-04-15T14:53:43;7.97;;;5.10;;
1479;SDS011;732;51.698;4.886;2023-04-15T14:56:12;14.17;;;10.73;;
1479;SDS011;732;51.698;4.886;2023-04-15T14:58:40;9.07;;;5.80;;
1479;SDS011;732;51.698;4.886;2023-04-15T15:01:08;8.07;;;4.10;;
1479;SDS011;732;51.698;4.886;2023-04-15T15:03:36;7.87;;;4.30;;
1479;SDS011;732;51.698;4.886;2023-04-15T15:06:06;5.50;;;3.97;;
1479;SDS011;732;51.698;4.886;2023-04-15T15:08:35;4.77;;;2.50;;
1479;SDS011;732;51.698;4.886;2023-04-15T15:11:03;5.37;;;2.80;;
1479;SDS011;732;51.698;4.886;2023-04-15T15:13:32;3.43;;;2.30;;
1479;SDS011;732;51.698;4.886;2023-04-15T15:16:01;4.07;;;2.43;;
1479;SDS011;732;51.698;4.886;2023-04-15T15:18:29;10.27;;;7.93;;
1479;SDS011;732;51.698;4.886;2023-04-15T15:20:57;5.10;;;2.27;;
1479;SDS011;732;51.698;4.886;2023-04-15T15:23:26;8.10;;;3.37;;
1479;SDS011;732;51.698;4.886;2023-04-15T15:25:55;7.57;;;3.00;;
1479;SDS011;732;51.698;4.886;2023-04-15T15:28:25;8.07;;;7.00;;
1479;SDS011;732;51.698;4.886;2023-04-15T15:30:53;7.83;;;5.53;;
1479;SDS011;732;51.698;4.886;2023-04-15T15:33:24;7.23;;;2.70;;
1479;SDS011;732;51.698;4.886;2023-04-15T15:35:55;8.00;;;6.40;;
1479;SDS011;732;51.698;4.886;2023-04-15T15:38:24;5.87;;;2.97;;
1479;SDS011;732;51.698;4.886;2023-04-15T15:40:52;7.33;;;2.60;;
1479;SDS011;732;51.698;4.886;2023-04-15T15:43:22;2.97;;;2.70;;